Time;durP1;ratioP1;P1;durP2;ratioP2;P2;SDS_P1;SDS_P2;PMS_P1;PMS_P2;Temp;Humidity;BMP_temperature;BMP_pressure;BME280_temperature;BME280_humidity;BME280_pressure;Samples;Min_cycle;Max_cycle;Signal;HPM_P1;HPM_P2
2022/10/29 00:01:16;;;;;;;14.57;7.13;;;;;;;;;;4972870;28;20422;-64
2022/10/29 00:03:41;;;;;;;28.27;8.00;;;;;;;;;;4989352;28;20031;-65
2022/10/29 00:06:10;;;;;;;17.83;7.60;;;;;;;;;;4980036;28;20047;-65
2022/10/29 00:08:37;;;;;;;19.23;7.30;;;;;;;;;;4988200;28;20074;-64
2022/10/29 00:11:14;;;;;;;19.42;6.70;;;;;;;;;;4980317;28;20065;-64
2022/10/29 00:13:41;;;;;;;16.85;7.40;;;;;;;;;;4988460;28;20089;-63
2022/10/29 00:16:15;;;;;;;17.77;7.30;;;;;;;;;;4994335;28;20383;-64
2022/10/29 00:18:41;;;;;;;18.08;7.22;;;;;;;;;;4982184;28;20089;-64
2022/10/29 00:21:11;;;;;;;17.95;7.53;;;;;;;;;;4988555;28;20180;-64
2022/10/29 00:23:36;;;;;;;18.90;7.63;;;;;;;;;;4996500;28;20054;-64
2022/10/29 00:26:03;;;;;;;14.45;7.30;;;;;;;;;;4994888;28;20313;-64
2022/10/29 00:28:28;;;;;;;23.17;7.80;;;;;;;;;;4996164;28;20033;-64
2022/10/29 00:30:54;;;;;;;16.60;7.30;;;;;;;;;;4997768;28;20395;-64
2022/10/29 00:33:20;;;;;;;17.38;7.55;;;;;;;;;;4994964;28;20038;-64
2022/10/29 00:35:59;;;;;;;18.20;7.55;;;;;;;;;;4995553;28;20037;-65
2022/10/29 00:38:26;;;;;;;17.98;7.18;;;;;;;;;;4980317;28;20034;-65
2022/10/29 00:40:52;;;;;;;14.95;6.68;;;;;;;;;;4976818;28;20084;-65
2022/10/29 00:43:20;;;;;;;17.90;7.82;;;;;;;;;;4975835;28;20506;-64
2022/10/29 00:45:51;;;;;;;16.52;7.00;;;;;;;;;;4991677;28;20361;-64
2022/10/29 00:48:17;;;;;;;18.58;7.60;;;;;;;;;;4989492;28;20037;-63
2022/10/29 00:50:45;;;;;;;14.77;7.55;;;;;;;;;;4987838;28;20034;-63
2022/10/29 00:53:11;;;;;;;23.55;8.10;;;;;;;;;;4995326;28;20026;-64
2022/10/29 00:55:36;;;;;;;14.88;6.95;;;;;;;;;;4996514;28;20333;-64
2022/10/29 00:58:02;;;;;;;15.70;7.38;;;;;;;;;;4994962;28;20026;-64
2022/10/29 01:00:28;;;;;;;18.63;8.02;;;;;;;;;;4982269;28;20468;-64
2022/10/29 01:02:53;;;;;;;21.50;7.43;;;;;;;;;;4976341;28;20035;-64
2022/10/29 01:05:22;;;;;;;19.73;7.32;;;;;;;;;;4990573;28;20095;-64
2022/10/29 01:07:47;;;;;;;17.33;7.50;;;;;;;;;;4994595;28;20356;-64
2022/10/29 01:10:15;;;;;;;15.65;7.10;;;;;;;;;;4994857;28;20582;-64
2022/10/29 01:12:40;;;;;;;18.48;7.32;;;;;;;;;;4994905;28;20030;-64
2022/10/29 01:15:32;;;;;;;18.52;7.60;;;;;;;;;;4994128;28;20102;-64
2022/10/29 01:18:23;;;;;;;17.60;7.35;;;;;;;;;;4994888;28;20039;-64
2022/10/29 01:21:10;;;;;;;18.52;8.48;;;;;;;;;;4984020;28;20116;-64
2022/10/29 01:23:50;;;;;;;15.93;7.88;;;;;;;;;;4995273;28;20057;-64
2022/10/29 01:26:53;;;;;;;14.20;6.85;;;;;;;;;;4993801;28;20035;-63
2022/10/29 01:29:39;;;;;;;13.90;7.30;;;;;;;;;;4993803;28;20073;-64
2022/10/29 01:32:36;;;;;;;16.23;7.45;;;;;;;;;;4994632;28;20040;-65
2022/10/29 01:35:11;;;;;;;20.10;7.50;;;;;;;;;;4987017;28;20058;-65
2022/10/29 01:37:52;;;;;;;18.40;7.65;;;;;;;;;;4975843;28;20034;-63
2022/10/29 01:40:24;;;;;;;20.17;7.97;;;;;;;;;;4990479;28;20387;-64
2022/10/29 01:43:17;;;;;;;16.52;7.63;;;;;;;;;;4981354;28;20034;-64
2022/10/29 01:46:00;;;;;;;21.42;8.95;;;;;;;;;;4981027;28;20031;-64
2022/10/29 01:48:31;;;;;;;17.05;7.80;;;;;;;;;;4979105;28;20034;-64
2022/10/29 01:50:59;;;;;;;17.45;7.50;;;;;;;;;;4990963;28;20031;-64
2022/10/29 01:53:27;;;;;;;17.98;7.93;;;;;;;;;;4976019;28;20035;-64
2022/10/29 01:55:52;;;;;;;14.02;7.32;;;;;;;;;;4975580;28;20034;-64
2022/10/29 01:58:18;;;;;;;20.67;8.18;;;;;;;;;;4980233;28;20030;-64
2022/10/29 02:00:47;;;;;;;19.45;7.75;;;;;;;;;;4981020;28;20031;-64
2022/10/29 02:03:41;;;;;;;19.95;7.70;;;;;;;;;;4974210;28;20086;-65
2022/10/29 02:06:36;;;;;;;17.05;7.43;;;;;;;;;;5005736;28;20046;-65
2022/10/29 02:09:14;;;;;;;17.52;8.18;;;;;;;;;;4999607;28;20545;-66
2022/10/29 02:11:56;;;;;;;19.45;7.68;;;;;;;;;;4975978;28;20034;-65
2022/10/29 02:14:28;;;;;;;24.80;8.23;;;;;;;;;;4985607;28;20026;-64
2022/10/29 02:16:55;;;;;;;17.23;8.38;;;;;;;;;;4994040;28;20095;-64
2022/10/29 02:19:20;;;;;;;16.05;8.00;;;;;;;;;;4994065;28;20445;-64
2022/10/29 02:21:46;;;;;;;16.30;7.93;;;;;;;;;;4994728;28;20034;-64
2022/10/29 02:24:11;;;;;;;17.80;8.43;;;;;;;;;;4984104;28;20519;-64
2022/10/29 02:26:36;;;;;;;22.42;8.80;;;;;;;;;;4975093;28;20043;-64
2022/10/29 02:29:02;;;;;;;21.17;9.13;;;;;;;;;;4973864;28;20035;-65
2022/10/29 02:31:28;;;;;;;20.13;8.25;;;;;;;;;;4975335;28;20407;-64
2022/10/29 02:33:53;;;;;;;16.83;8.48;;;;;;;;;;4974700;28;20038;-65
2022/10/29 02:36:18;;;;;;;16.92;8.35;;;;;;;;;;4988517;28;20038;-64
2022/10/29 02:38:44;;;;;;;19.65;9.27;;;;;;;;;;4993524;28;20036;-64
2022/10/29 02:41:09;;;;;;;17.85;9.23;;;;;;;;;;4985094;28;20550;-64
2022/10/29 02:43:34;;;;;;;18.45;8.73;;;;;;;;;;4974665;28;20031;-64
2022/10/29 02:46:13;;;;;;;20.75;10.80;;;;;;;;;;4976484;28;20110;-64
2022/10/29 02:48:39;;;;;;;19.80;8.25;;;;;;;;;;4981060;28;20030;-64
2022/10/29 02:51:04;;;;;;;19.42;8.80;;;;;;;;;;4990820;28;20030;-64
2022/10/29 02:53:30;;;;;;;19.25;8.25;;;;;;;;;;4994187;28;20395;-64
2022/10/29 02:55:55;;;;;;;16.95;8.77;;;;;;;;;;4986404;28;20029;-64
2022/10/29 02:58:20;;;;;;;13.13;8.68;;;;;;;;;;4990033;28;20483;-64
2022/10/29 03:00:49;;;;;;;20.13;8.93;;;;;;;;;;4974703;28;20039;-63
2022/10/29 03:03:14;;;;;;;17.65;8.27;;;;;;;;;;4973420;28;20054;-64
2022/10/29 03:05:40;;;;;;;19.08;8.75;;;;;;;;;;4982726;28;20475;-64
2022/10/29 03:08:05;;;;;;;25.70;9.50;;;;;;;;;;4992526;28;20027;-64
2022/10/29 03:10:30;;;;;;;15.57;8.50;;;;;;;;;;4984553;28;20066;-64
2022/10/29 03:12:59;;;;;;;18.48;9.02;;;;;;;;;;4973603;28;20031;-64
2022/10/29 03:15:24;;;;;;;19.63;8.73;;;;;;;;;;4986556;28;20383;-64
2022/10/29 03:17:50;;;;;;;15.85;8.10;;;;;;;;;;4989910;28;20042;-63
2022/10/29 03:20:15;;;;;;;19.58;8.65;;;;;;;;;;4973577;28;20498;-64
2022/10/29 03:22:40;;;;;;;18.05;8.45;;;;;;;;;;4973565;28;20038;-63
2022/10/29 03:25:06;;;;;;;17.20;8.85;;;;;;;;;;4973816;28;20513;-64
2022/10/29 03:27:31;;;;;;;14.60;8.10;;;;;;;;;;4973394;28;20035;-63
2022/10/29 03:29:57;;;;;;;18.95;8.32;;;;;;;;;;4973725;28;20085;-64
2022/10/29 03:32:22;;;;;;;20.13;8.77;;;;;;;;;;4973022;28;20073;-64
2022/10/29 03:34:48;;;;;;;20.10;8.63;;;;;;;;;;4976733;28;20455;-64
2022/10/29 03:37:13;;;;;;;15.00;8.15;;;;;;;;;;4971969;28;20034;-64
2022/10/29 03:39:38;;;;;;;17.55;7.90;;;;;;;;;;4973940;28;20033;-64
2022/10/29 03:42:04;;;;;;;16.77;7.95;;;;;;;;;;4973423;28;20423;-63
2022/10/29 03:44:30;;;;;;;18.23;8.30;;;;;;;;;;4973811;28;20038;-63
2022/10/29 03:46:55;;;;;;;18.80;9.48;;;;;;;;;;4987349;28;20042;-64
2022/10/29 03:49:20;;;;;;;16.10;8.02;;;;;;;;;;4990361;28;20168;-64
2022/10/29 03:51:46;;;;;;;20.33;8.70;;;;;;;;;;4994123;28;20121;-63
2022/10/29 03:54:11;;;;;;;19.88;8.60;;;;;;;;;;4991398;28;20030;-63
2022/10/29 03:56:36;;;;;;;17.95;8.40;;;;;;;;;;4974876;28;20039;-64
2022/10/29 03:59:02;;;;;;;17.70;8.43;;;;;;;;;;4972881;28;20038;-65
2022/10/29 04:01:27;;;;;;;15.73;8.15;;;;;;;;;;4973516;28;20070;-63
2022/10/29 04:03:52;;;;;;;18.42;8.45;;;;;;;;;;4979556;28;20464;-64
2022/10/29 04:06:18;;;;;;;15.60;8.40;;;;;;;;;;4986094;28;20053;-65
2022/10/29 04:08:43;;;;;;;18.17;8.90;;;;;;;;;;4993109;28;20030;-64
2022/10/29 04:11:13;;;;;;;17.00;8.32;;;;;;;;;;4991335;28;20089;-64
2022/10/29 04:13:39;;;;;;;20.65;8.50;;;;;;;;;;4992290;28;20027;-64
2022/10/29 04:16:11;;;;;;;14.48;8.27;;;;;;;;;;4994176;28;20073;-63
2022/10/29 04:18:36;;;;;;;22.08;8.85;;;;;;;;;;4976461;28;20491;-64
2022/10/29 04:21:02;;;;;;;19.38;8.38;;;;;;;;;;4979423;28;20022;-64
2022/10/29 04:23:28;;;;;;;19.50;9.10;;;;;;;;;;4992000;28;20515;-63
2022/10/29 04:25:58;;;;;;;20.08;8.73;;;;;;;;;;4986440;28;20066;-64
2022/10/29 04:28:24;;;;;;;18.08;8.77;;;;;;;;;;4972702;28;20535;-64
2022/10/29 04:30:49;;;;;;;15.65;8.18;;;;;;;;;;4981709;28;20117;-64
2022/10/29 04:33:15;;;;;;;21.38;8.75;;;;;;;;;;4985144;28;20051;-64
2022/10/29 04:35:40;;;;;;;26.90;9.05;;;;;;;;;;4973382;28;20110;-64
2022/10/29 04:38:08;;;;;;;20.38;9.55;;;;;;;;;;4989034;28;20419;-65
2022/10/29 04:40:34;;;;;;;19.33;9.25;;;;;;;;;;4988934;28;20034;-64
2022/10/29 04:42:59;;;;;;;20.38;8.70;;;;;;;;;;4973318;28;20110;-64
2022/10/29 04:45:25;;;;;;;18.30;9.00;;;;;;;;;;4972631;28;20042;-65
2022/10/29 04:48:10;;;;;;;18.77;8.65;;;;;;;;;;4978520;28;20036;-64
2022/10/29 04:50:37;;;;;;;19.90;9.00;;;;;;;;;;4987926;28;20495;-63
2022/10/29 04:53:04;;;;;;;20.60;8.35;;;;;;;;;;4998586;28;20077;-64
2022/10/29 04:55:30;;;;;;;18.05;8.93;;;;;;;;;;4977724;28;20205;-63
2022/10/29 04:57:56;;;;;;;25.38;9.27;;;;;;;;;;4990542;28;20062;-64
2022/10/29 05:00:22;;;;;;;21.83;9.15;;;;;;;;;;4983004;28;20190;-64
2022/10/29 05:02:49;;;;;;;17.35;8.68;;;;;;;;;;4988041;28;20109;-63
2022/10/29 05:05:16;;;;;;;19.02;8.65;;;;;;;;;;4994759;28;20113;-64
2022/10/29 05:07:42;;;;;;;19.63;8.30;;;;;;;;;;4994798;28;20399;-63
2022/10/29 05:10:07;;;;;;;19.05;8.23;;;;;;;;;;4995188;28;20030;-64
2022/10/29 05:12:33;;;;;;;16.10;8.10;;;;;;;;;;4984005;28;20033;-64
2022/10/29 05:14:58;;;;;;;27.23;9.32;;;;;;;;;;4992816;28;20045;-64
2022/10/29 05:17:23;;;;;;;18.88;8.75;;;;;;;;;;4986989;28;20030;-64
2022/10/29 05:19:49;;;;;;;22.95;9.27;;;;;;;;;;4976114;28;20037;-64
2022/10/29 05:22:14;;;;;;;22.35;9.40;;;;;;;;;;4978432;28;20030;-66
2022/10/29 05:24:39;;;;;;;17.52;9.20;;;;;;;;;;4994994;28;20046;-65
2022/10/29 05:27:05;;;;;;;19.08;8.85;;;;;;;;;;4979165;28;20047;-64
2022/10/29 05:29:31;;;;;;;18.35;9.07;;;;;;;;;;4975355;28;20058;-64
2022/10/29 05:31:56;;;;;;;21.98;8.50;;;;;;;;;;4976605;28;20062;-64
2022/10/29 05:34:22;;;;;;;18.05;8.73;;;;;;;;;;4978257;28;20085;-63
2022/10/29 05:36:47;;;;;;;20.65;9.38;;;;;;;;;;4978381;28;20046;-64
2022/10/29 05:39:13;;;;;;;18.75;8.38;;;;;;;;;;4988066;28;20023;-64
2022/10/29 05:41:38;;;;;;;19.35;8.82;;;;;;;;;;4975930;28;20035;-64
2022/10/29 05:44:04;;;;;;;23.00;8.18;;;;;;;;;;4975576;28;20057;-64
2022/10/29 05:46:29;;;;;;;16.98;8.20;;;;;;;;;;4985930;28;20038;-64
2022/10/29 05:48:54;;;;;;;18.23;8.80;;;;;;;;;;4983383;28;20041;-63
2022/10/29 05:51:20;;;;;;;19.38;8.60;;;;;;;;;;4984116;28;20042;-65
2022/10/29 05:53:46;;;;;;;22.58;9.30;;;;;;;;;;4986081;28;20039;-64
2022/10/29 05:56:11;;;;;;;20.25;8.40;;;;;;;;;;4987801;28;20041;-63
2022/10/29 05:58:37;;;;;;;16.40;8.32;;;;;;;;;;4977572;28;20035;-64
2022/10/29 06:01:06;;;;;;;16.45;8.07;;;;;;;;;;4974452;28;20114;-64
2022/10/29 06:03:31;;;;;;;18.23;7.85;;;;;;;;;;4975140;28;20043;-64
2022/10/29 06:05:57;;;;;;;16.15;8.40;;;;;;;;;;4978656;28;20037;-63
2022/10/29 06:08:22;;;;;;;17.75;8.35;;;;;;;;;;4974667;28;20126;-64
2022/10/29 06:10:47;;;;;;;18.98;8.30;;;;;;;;;;4975545;28;20039;-64
2022/10/29 06:13:18;;;;;;;18.17;8.88;;;;;;;;;;4975346;28;20059;-64
2022/10/29 06:15:44;;;;;;;19.88;8.50;;;;;;;;;;4983109;28;20044;-64
2022/10/29 06:18:10;;;;;;;20.58;8.65;;;;;;;;;;4986477;28;20030;-63
2022/10/29 06:20:37;;;;;;;16.95;8.65;;;;;;;;;;4979960;28;20530;-64
2022/10/29 06:23:02;;;;;;;21.52;8.18;;;;;;;;;;4990904;28;20062;-64
2022/10/29 06:25:28;;;;;;;20.67;8.90;;;;;;;;;;4973926;28;20146;-64
2022/10/29 06:28:00;;;;;;;24.58;8.40;;;;;;;;;;4974852;28;20038;-63
2022/10/29 06:30:26;;;;;;;20.80;7.85;;;;;;;;;;4973897;28;20039;-64
2022/10/29 06:32:51;;;;;;;20.33;8.50;;;;;;;;;;4974053;28;20419;-64
2022/10/29 06:35:16;;;;;;;21.25;8.60;;;;;;;;;;4975060;28;20027;-64
2022/10/29 06:37:42;;;;;;;19.85;8.20;;;;;;;;;;4977503;28;20061;-64
2022/10/29 06:40:08;;;;;;;17.45;8.63;;;;;;;;;;4974035;28;20042;-63
2022/10/29 06:42:33;;;;;;;19.90;8.40;;;;;;;;;;4974940;28;20496;-64
2022/10/29 06:44:58;;;;;;;21.23;8.15;;;;;;;;;;4974819;28;20031;-64
2022/10/29 06:47:24;;;;;;;19.98;8.23;;;;;;;;;;4973729;28;20082;-65
2022/10/29 06:49:49;;;;;;;17.90;8.30;;;;;;;;;;4974349;28;20054;-64
2022/10/29 06:52:14;;;;;;;16.38;7.97;;;;;;;;;;4977243;28;20384;-64
2022/10/29 06:54:40;;;;;;;25.02;8.45;;;;;;;;;;4986361;28;20091;-64
2022/10/29 06:57:05;;;;;;;23.40;8.57;;;;;;;;;;4976923;28;20035;-64
2022/10/29 06:59:30;;;;;;;19.60;7.97;;;;;;;;;;4993423;28;20423;-65
2022/10/29 07:01:56;;;;;;;16.92;7.47;;;;;;;;;;4978163;28;20104;-64
2022/10/29 07:04:21;;;;;;;17.40;7.88;;;;;;;;;;4973641;28;20027;-64
2022/10/29 07:06:46;;;;;;;20.35;8.30;;;;;;;;;;4991677;28;20031;-64
2022/10/29 07:09:12;;;;;;;18.13;7.90;;;;;;;;;;4974172;28;20050;-64
2022/10/29 07:11:37;;;;;;;18.80;7.88;;;;;;;;;;4982859;28;20229;-65
2022/10/29 07:14:04;;;;;;;17.38;7.95;;;;;;;;;;5002730;28;20475;-64
2022/10/29 07:16:30;;;;;;;19.98;8.23;;;;;;;;;;4986282;28;20107;-64
2022/10/29 07:18:56;;;;;;;15.05;7.55;;;;;;;;;;4993379;28;20454;-64
2022/10/29 07:21:21;;;;;;;17.77;7.80;;;;;;;;;;4985828;28;20041;-64
2022/10/29 07:23:47;;;;;;;21.05;7.95;;;;;;;;;;4973507;28;20122;-64
2022/10/29 07:26:12;;;;;;;18.65;7.68;;;;;;;;;;4973366;28;20027;-64
2022/10/29 07:28:37;;;;;;;14.02;7.60;;;;;;;;;;4983076;28;20040;-64
2022/10/29 07:31:03;;;;;;;15.30;7.68;;;;;;;;;;4985823;28;20043;-64
2022/10/29 07:33:29;;;;;;;18.80;7.00;;;;;;;;;;4985179;28;20050;-64
2022/10/29 07:35:57;;;;;;;15.60;6.95;;;;;;;;;;4988094;28;20030;-63
2022/10/29 07:38:22;;;;;;;21.60;8.18;;;;;;;;;;4973080;28;20046;-64
2022/10/29 07:40:49;;;;;;;23.63;8.05;;;;;;;;;;4974094;28;20031;-64
2022/10/29 07:43:18;;;;;;;19.40;7.22;;;;;;;;;;4992498;28;20049;-64
2022/10/29 07:45:45;;;;;;;16.35;7.38;;;;;;;;;;5008084;28;20479;-64
2022/10/29 07:48:10;;;;;;;15.45;7.00;;;;;;;;;;4991940;28;20078;-64
2022/10/29 07:50:37;;;;;;;20.85;7.28;;;;;;;;;;4977765;28;20065;-64
2022/10/29 07:53:04;;;;;;;16.15;7.28;;;;;;;;;;4993024;28;20030;-64
2022/10/29 07:55:30;;;;;;;19.73;7.00;;;;;;;;;;4989372;28;20172;-64
2022/10/29 07:57:57;;;;;;;17.88;6.95;;;;;;;;;;4974105;28;20106;-64
2022/10/29 08:00:24;;;;;;;18.58;7.30;;;;;;;;;;4973127;28;20027;-64
2022/10/29 08:02:53;;;;;;;18.50;7.43;;;;;;;;;;4992732;28;20034;-65
2022/10/29 08:05:19;;;;;;;15.93;7.07;;;;;;;;;;4981214;28;20080;-64
2022/10/29 08:07:44;;;;;;;13.38;6.47;;;;;;;;;;4987079;28;20114;-64
2022/10/29 08:10:10;;;;;;;18.50;7.00;;;;;;;;;;4973183;28;20121;-64
2022/10/29 08:12:35;;;;;;;17.35;7.13;;;;;;;;;;4984797;28;20026;-64
2022/10/29 08:15:00;;;;;;;19.65;7.05;;;;;;;;;;4992006;28;20183;-64
2022/10/29 08:17:29;;;;;;;18.27;6.45;;;;;;;;;;4993907;28;20538;-66
2022/10/29 08:19:54;;;;;;;21.13;6.63;;;;;;;;;;4980961;28;20027;-65
2022/10/29 08:22:19;;;;;;;15.38;6.47;;;;;;;;;;4993143;28;20042;-65
2022/10/29 08:24:45;;;;;;;16.67;6.88;;;;;;;;;;4996052;28;20113;-64
2022/10/29 08:27:10;;;;;;;15.27;7.00;;;;;;;;;;4981228;28;20115;-63
2022/10/29 08:29:35;;;;;;;14.82;6.45;;;;;;;;;;4984041;28;20395;-64
2022/10/29 08:32:01;;;;;;;15.07;6.57;;;;;;;;;;4988549;28;20034;-64
2022/10/29 08:34:26;;;;;;;16.52;6.32;;;;;;;;;;4979895;28;20392;-64
2022/10/29 08:36:51;;;;;;;20.77;6.43;;;;;;;;;;4995246;28;20435;-64
2022/10/29 08:39:17;;;;;;;15.80;6.38;;;;;;;;;;4991464;28;20050;-64
2022/10/29 08:41:48;;;;;;;15.63;6.68;;;;;;;;;;4995820;28;20595;-64
2022/10/29 08:44:49;;;;;;;15.07;6.13;;;;;;;;;;4992772;28;20415;-64
2022/10/29 08:47:17;;;;;;;;;;;;;;;;;;4990165;28;20737;-64
2022/10/29 08:50:20;;;;;;;16.50;6.25;;;;;;;;;;5011514;28;19914;-64
2022/10/29 08:52:46;;;;;;;17.65;6.03;;;;;;;;;;4989167;28;20312;-63
2022/10/29 08:55:19;;;;;;;13.32;6.05;;;;;;;;;;4996781;28;20042;-63
2022/10/29 08:57:58;;;;;;;16.55;6.57;;;;;;;;;;4993658;28;20042;-64
2022/10/29 09:00:32;;;;;;;17.10;6.10;;;;;;;;;;4994394;28;20038;-63
2022/10/29 09:02:59;;;;;;;17.83;6.00;;;;;;;;;;4979866;28;20360;-64
2022/10/29 09:05:44;;;;;;;20.45;6.20;;;;;;;;;;4977967;28;20038;-64
2022/10/29 09:08:43;;;;;;;17.50;6.47;;;;;;;;;;4976298;28;20063;-64
2022/10/29 09:11:35;;;;;;;17.48;6.22;;;;;;;;;;4979935;28;20050;-64
2022/10/29 09:14:16;;;;;;;14.80;6.22;;;;;;;;;;4995779;28;20042;-64
2022/10/29 09:16:53;;;;;;;;;;;;;;;;;;4994923;28;20046;-66
2022/10/29 09:19:41;;;;;;;16.30;6.30;;;;;;;;;;4994953;28;19932;-64
2022/10/29 09:22:31;;;;;;;18.33;6.90;;;;;;;;;;4982059;28;20407;-64
2022/10/29 09:25:17;;;;;;;17.20;6.25;;;;;;;;;;4975677;28;20060;-65
2022/10/29 09:28:01;;;;;;;13.77;6.50;;;;;;;;;;4975058;28;20066;-64
2022/10/29 09:30:30;;;;;;;16.10;6.53;;;;;;;;;;4975917;28;20030;-64
2022/10/29 09:33:10;;;;;;;13.93;6.15;;;;;;;;;;4975428;28;20034;-64
2022/10/29 09:35:44;;;;;;;15.98;6.68;;;;;;;;;;4976301;28;20460;-64
2022/10/29 09:38:19;;;;;;;13.90;6.43;;;;;;;;;;4975857;28;20123;-64
2022/10/29 09:40:45;;;;;;;14.60;6.18;;;;;;;;;;4989940;28;20034;-64
2022/10/29 09:43:29;;;;;;;17.05;6.50;;;;;;;;;;4977758;28;20033;-64
2022/10/29 09:46:00;;;;;;;16.90;6.35;;;;;;;;;;4994913;28;20045;-64
2022/10/29 09:48:34;;;;;;;12.52;6.55;;;;;;;;;;4976775;28;20054;-64
2022/10/29 09:51:19;;;;;;;17.88;6.68;;;;;;;;;;4978068;28;20085;-64
2022/10/29 09:53:45;;;;;;;11.73;6.07;;;;;;;;;;4973780;28;20038;-63
2022/10/29 09:56:10;;;;;;;15.65;6.13;;;;;;;;;;4990531;28;20051;-64
2022/10/29 09:58:43;;;;;;;16.58;6.03;;;;;;;;;;4994089;28;20038;-64
2022/10/29 10:01:09;;;;;;;20.40;6.57;;;;;;;;;;4977427;28;20050;-63
2022/10/29 10:03:44;;;;;;;16.58;6.28;;;;;;;;;;5008307;28;20121;-65
2022/10/29 10:06:12;;;;;;;20.70;6.70;;;;;;;;;;4986775;28;20225;-63
2022/10/29 10:09:03;;;;;;;17.20;5.93;;;;;;;;;;4987663;28;20142;-64
2022/10/29 10:11:41;;;;;;;18.45;6.25;;;;;;;;;;4992136;28;20507;-64
2022/10/29 10:14:15;;;;;;;16.27;6.22;;;;;;;;;;4993005;28;20030;-63
2022/10/29 10:16:41;;;;;;;13.40;5.90;;;;;;;;;;4991741;28;20034;-63
2022/10/29 10:19:27;;;;;;;17.70;6.18;;;;;;;;;;4974563;28;20042;-63
2022/10/29 10:22:04;;;;;;;15.27;6.40;;;;;;;;;;4989976;28;20620;-63
2022/10/29 10:24:37;;;;;;;16.58;6.20;;;;;;;;;;4994056;28;20550;-63
2022/10/29 10:27:17;;;;;;;14.73;6.03;;;;;;;;;;4993027;28;20435;-63
2022/10/29 10:29:47;;;;;;;14.25;5.47;;;;;;;;;;4992802;28;20093;-64
2022/10/29 10:32:16;;;;;;;12.80;5.78;;;;;;;;;;4988729;28;20062;-64
2022/10/29 10:34:41;;;;;;;13.35;6.03;;;;;;;;;;4975156;28;20035;-64
2022/10/29 10:37:10;;;;;;;16.17;6.13;;;;;;;;;;4974473;28;20487;-63
2022/10/29 10:39:37;;;;;;;14.07;5.38;;;;;;;;;;4973712;28;20023;-63
2022/10/29 10:42:05;;;;;;;20.40;6.00;;;;;;;;;;4975120;28;20082;-63
2022/10/29 10:44:32;;;;;;;19.10;5.70;;;;;;;;;;4977915;28;20041;-65
2022/10/29 10:47:04;;;;;;;19.95;5.85;;;;;;;;;;4984930;28;20046;-64
2022/10/29 10:49:35;;;;;;;12.35;5.70;;;;;;;;;;4973912;28;20038;-63
2022/10/29 10:52:13;;;;;;;10.52;5.25;;;;;;;;;;4976728;28;20238;-64
2022/10/29 10:54:43;;;;;;;17.85;6.05;;;;;;;;;;4988230;28;20046;-64
2022/10/29 10:57:11;;;;;;;13.57;5.32;;;;;;;;;;4974485;28;20045;-64
2022/10/29 10:59:55;;;;;;;12.05;4.68;;;;;;;;;;4972778;28;20117;-64
2022/10/29 11:02:37;;;;;;;14.70;5.00;;;;;;;;;;4977614;28;20035;-64
2022/10/29 11:05:18;;;;;;;13.23;4.85;;;;;;;;;;4976292;28;20038;-64
2022/10/29 11:07:49;;;;;;;19.23;4.68;;;;;;;;;;4973446;28;20084;-64
2022/10/29 11:10:17;;;;;;;12.30;4.60;;;;;;;;;;4973537;28;20027;-64
2022/10/29 11:12:52;;;;;;;15.13;4.68;;;;;;;;;;4973285;28;20042;-64
2022/10/29 11:15:33;;;;;;;19.15;4.32;;;;;;;;;;4999009;28;20061;-64
2022/10/29 11:18:05;;;;;;;14.85;4.13;;;;;;;;;;4975227;28;20034;-64
2022/10/29 11:20:35;;;;;;;13.38;4.40;;;;;;;;;;4973116;28;20027;-63
2022/10/29 11:23:44;;;;;;;13.25;5.00;;;;;;;;;;4972781;28;20070;-63
2022/10/29 11:26:18;;;;;;;13.00;4.47;;;;;;;;;;4997899;28;20124;-64
2022/10/29 11:29:19;;;;;;;10.15;4.47;;;;;;;;;;4990104;28;20042;-64
2022/10/29 11:32:15;;;;;;;17.15;4.38;;;;;;;;;;4978610;28;20122;-64
2022/10/29 11:35:03;;;;;;;16.60;4.32;;;;;;;;;;4977755;28;20191;-64
2022/10/29 11:37:55;;;;;;;9.57;4.05;;;;;;;;;;4991432;28;20506;-63
2022/10/29 11:40:33;;;;;;;10.93;4.05;;;;;;;;;;4990834;28;20475;-64
2022/10/29 11:43:00;;;;;;;11.68;4.40;;;;;;;;;;4983104;28;20027;-64
2022/10/29 11:46:17;;;;;;;16.20;4.00;;;;;;;;;;4984816;28;20471;-63
2022/10/29 11:48:58;;;;;;;13.63;4.25;;;;;;;;;;4979436;28;20133;-62
2022/10/29 11:51:57;;;;;;;10.45;4.10;;;;;;;;;;4982300;28;20030;-63
2022/10/29 11:54:51;;;;;;;16.27;3.83;;;;;;;;;;4993373;28;20130;-63
2022/10/29 11:57:25;;;;;;;15.55;4.05;;;;;;;;;;4974515;28;20030;-63
2022/10/29 12:00:12;;;;;;;9.30;3.70;;;;;;;;;;4971955;28;20039;-63
2022/10/29 12:02:49;;;;;;;14.43;4.18;;;;;;;;;;4990315;28;20045;-63
2022/10/29 12:05:20;;;;;;;12.85;4.00;;;;;;;;;;4973457;28;20041;-63
2022/10/29 12:08:04;;;;;;;12.77;3.90;;;;;;;;;;4984151;28;20034;-63
2022/10/29 12:10:53;;;;;;;18.73;3.85;;;;;;;;;;4991629;28;20069;-64
2022/10/29 12:13:48;;;;;;;15.18;3.80;;;;;;;;;;4991172;28;20113;-64
2022/10/29 12:16:38;;;;;;;14.45;3.90;;;;;;;;;;4995434;28;20037;-63
2022/10/29 12:19:59;;;;;;;12.35;3.88;;;;;;;;;;4990472;28;20451;-64
2022/10/29 12:22:34;;;;;;;13.70;3.95;;;;;;;;;;4993066;28;20042;-63
2022/10/29 12:25:11;;;;;;;14.32;3.80;;;;;;;;;;5008016;28;20041;-64
2022/10/29 12:27:48;;;;;;;12.40;3.80;;;;;;;;;;4986612;28;20043;-63
2022/10/29 12:30:16;;;;;;;12.75;3.50;;;;;;;;;;4991004;28;20035;-64
2022/10/29 12:33:33;;;;;;;15.38;3.80;;;;;;;;;;4990891;28;20066;-64
2022/10/29 12:36:24;;;;;;;15.32;4.25;;;;;;;;;;4990862;28;20034;-63
2022/10/29 12:38:53;;;;;;;15.25;4.05;;;;;;;;;;4991275;28;20042;-64
2022/10/29 12:41:24;;;;;;;10.35;3.70;;;;;;;;;;4985476;28;20384;-63
2022/10/29 12:43:52;;;;;;;16.85;4.13;;;;;;;;;;4972011;28;20063;-63
2022/10/29 12:46:41;;;;;;;16.23;3.67;;;;;;;;;;4971382;28;20038;-63
2022/10/29 12:49:28;;;;;;;12.30;3.80;;;;;;;;;;4972077;28;20030;-64
2022/10/29 12:52:00;;;;;;;11.52;3.70;;;;;;;;;;4973989;28;20065;-64
2022/10/29 12:54:30;;;;;;;14.07;3.70;;;;;;;;;;4993220;28;20031;-63
2022/10/29 12:57:02;;;;;;;;;;;;;;;;;;4979514;28;20030;-63
2022/10/29 12:59:33;;;;;;;14.75;3.90;;;;;;;;;;4988600;28;19913;-63
2022/10/29 13:02:28;;;;;;;15.50;3.70;;;;;;;;;;4990089;28;20034;-64
2022/10/29 13:05:09;;;;;;;12.35;3.97;;;;;;;;;;4990949;28;20049;-64
2022/10/29 13:07:46;;;;;;;16.00;3.78;;;;;;;;;;4976819;28;20073;-64
2022/10/29 13:10:20;;;;;;;13.45;4.00;;;;;;;;;;4994384;28;20046;-63
2022/10/29 13:13:06;;;;;;;15.52;4.22;;;;;;;;;;4989646;28;20066;-64
2022/10/29 13:15:56;;;;;;;17.92;3.90;;;;;;;;;;4991322;28;20030;-62
2022/10/29 13:18:34;;;;;;;12.48;3.67;;;;;;;;;;4986093;28;20393;-63
2022/10/29 13:20:59;;;;;;;14.18;3.72;;;;;;;;;;4990022;28;20510;-63
2022/10/29 13:23:26;;;;;;;15.38;3.95;;;;;;;;;;4976012;28;20059;-63
2022/10/29 13:25:58;;;;;;;14.57;4.07;;;;;;;;;;4977335;28;20050;-63
2022/10/29 13:28:24;;;;;;;12.75;3.95;;;;;;;;;;4979682;28;20395;-63
2022/10/29 13:31:03;;;;;;;14.13;3.97;;;;;;;;;;4975146;28;20409;-64
2022/10/29 13:33:28;;;;;;;15.50;3.63;;;;;;;;;;4990494;28;20468;-64
2022/10/29 13:35:54;;;;;;;13.35;3.92;;;;;;;;;;4994220;28;20048;-64
2022/10/29 13:38:54;;;;;;;14.60;3.80;;;;;;;;;;4976024;28;20438;-64
2022/10/29 13:41:26;;;;;;;16.60;4.03;;;;;;;;;;4985904;28;20037;-63
2022/10/29 13:44:04;;;;;;;16.23;3.90;;;;;;;;;;5007620;28;20058;-64
2022/10/29 13:46:48;;;;;;;9.75;3.58;;;;;;;;;;4985656;28;20035;-64
2022/10/29 13:49:22;;;;;;;15.52;3.78;;;;;;;;;;4975004;28;20049;-64
2022/10/29 13:51:51;;;;;;;13.73;4.03;;;;;;;;;;4976983;28;20039;-64
2022/10/29 13:54:27;;;;;;;10.93;3.75;;;;;;;;;;4976525;28;20042;-64
2022/10/29 13:56:58;;;;;;;10.27;3.75;;;;;;;;;;4983870;28;20108;-64
2022/10/29 13:59:44;;;;;;;14.20;3.50;;;;;;;;;;4994186;28;20030;-64
2022/10/29 14:02:20;;;;;;;14.73;3.78;;;;;;;;;;4980564;28;20051;-63
2022/10/29 14:04:49;;;;;;;11.88;3.60;;;;;;;;;;4977000;28;20514;-65
2022/10/29 14:07:23;;;;;;;16.10;4.18;;;;;;;;;;4975177;28;20381;-64
2022/10/29 14:09:52;;;;;;;15.80;3.92;;;;;;;;;;4973962;28;20104;-64
2022/10/29 14:12:22;;;;;;;14.98;4.22;;;;;;;;;;4980291;28;20026;-64
2022/10/29 14:15:05;;;;;;;12.27;4.00;;;;;;;;;;4993452;28;20054;-64
2022/10/29 14:17:30;;;;;;;11.45;3.90;;;;;;;;;;4996644;28;20041;-64
2022/10/29 14:19:55;;;;;;;16.38;4.22;;;;;;;;;;4992700;28;20027;-64
2022/10/29 14:22:29;;;;;;;13.75;3.85;;;;;;;;;;4979248;28;20589;-64
2022/10/29 14:24:55;;;;;;;13.10;3.90;;;;;;;;;;4986259;28;20081;-64
2022/10/29 14:27:20;;;;;;;14.25;4.75;;;;;;;;;;4986603;28;20751;-64
2022/10/29 14:29:47;;;;;;;12.70;4.10;;;;;;;;;;4995078;28;20045;-64
2022/10/29 14:32:17;;;;;;;16.15;4.07;;;;;;;;;;4988043;28;20035;-64
2022/10/29 14:34:44;;;;;;;;;;;;;;;;;;4975234;28;20033;-64
2022/10/29 14:37:12;;;;;;;15.45;4.15;;;;;;;;;;4984092;28;20012;-64
2022/10/29 14:39:40;;;;;;;15.55;4.35;;;;;;;;;;4992404;28;20030;-63
2022/10/29 14:42:16;;;;;;;12.50;4.25;;;;;;;;;;4992458;28;20038;-65
2022/10/29 14:44:51;;;;;;;10.43;3.63;;;;;;;;;;4975407;28;20034;-65
2022/10/29 14:47:35;;;;;;;14.95;4.18;;;;;;;;;;4974844;28;20030;-64
2022/10/29 14:50:16;;;;;;;14.38;4.30;;;;;;;;;;4989443;28;20097;-64
2022/10/29 14:52:44;;;;;;;11.30;3.90;;;;;;;;;;4987680;28;20041;-64
2022/10/29 14:55:22;;;;;;;9.98;3.63;;;;;;;;;;4991675;28;20364;-64
2022/10/29 14:58:04;;;;;;;16.88;4.45;;;;;;;;;;4992374;28;20034;-64